Hhl Rio De Janeiro — D5AU2 — position and weather

sailwx.info

Track history (hours):
 
Tides and Currents Weather Stations Pressure Air Temp Water Temp Dewpoint Dewpoint Depression Visibility Wind Speed Wind Dir Waves Ship Positions

Hhl Rio De Janeiro

Last reported at 2015-May-26 18:32 UTC. Time now 2015-May-28 00:02 UTC.
Position S 24°05' W 041°25'.

Length 168 m; draft 6.7 m.

Type: Cargo ship. MMSI: 636092346.

Date/timePositionNaut miles runAvg speedWind from/ knotsBaromVisibWave heightAir tempDewpointWater temp
2015-May-26 18:32S 24°05' W 041°25'3014.1
2015-May-26 16:25S 23°45' W 041°01'2713.9
2015-May-26 14:30S 23°27' W 040°40'  
2015-May-18 16:12N 14°28' W 021°56'914.0
2015-May-18 15:32N 14°36' W 021°52'23013.6
2015-May-17 22:33N 18°04' W 020°09'1913.5
2015-May-17 21:08N 18°22' W 020°01'1213.6
2015-May-17 20:17N 18°32' W 019°56'1213.6
2015-May-17 19:26N 18°43' W 019°50'1214.0
2015-May-17 18:34N 18°54' W 019°45'1414.3
2015-May-17 17:33N 19°07' W 019°38'1414.3
2015-May-17 16:33N 19°20' W 019°32'1714.2
2015-May-17 15:21N 19°35' W 019°24'1114.3
2015-May-17 14:34N 19°45' W 019°19'1414.1
2015-May-17 13:34N 19°58' W 019°13'1414.1
2015-May-17 12:33N 20°11' W 019°06'1414.0
2015-May-17 11:31N 20°24' W 018°60'1313.7
2015-May-17 10:33N 20°36' W 018°53'1414.1
2015-May-17 09:33N 20°49' W 018°47'1414.0
2015-May-17 08:33N 21°01' W 018°41'1513.6
2015-May-17 07:29N 21°14' W 018°34'1413.8
2015-May-17 06:27N 21°27' W 018°28'1314.1
2015-May-17 05:33N 21°39' W 018°22'1413.7
2015-May-17 04:34N 21°51' W 018°15'2114.2
2015-May-17 03:03N 22°10' W 018°06'4813.8
2015-May-16 23:33N 22°54' W 017°43'  
Track history (hours):
 
Tides and Currents Weather Stations Pressure Air Temp Water Temp Dewpoint Dewpoint Depression Visibility Wind Speed Wind Dir Waves Ship Positions

Hhl Rio De Janeiro

Last reported at 2015-May-26 18:32 UTC. Time now 2015-May-28 00:02 UTC.
Position S 24°05' W 041°25'.

Length 168 m; draft 6.7 m.

Type: Cargo ship. MMSI: 636092346.

Date/timePositionNaut miles runAvg speedWind from/ knotsBaromVisibWave heightAir tempDewpointWater temp
2015-May-26 18:32S 24°05' W 041°25'3014.1
2015-May-26 16:25S 23°45' W 041°01'2713.9
2015-May-26 14:30S 23°27' W 040°40'  
2015-May-18 16:12N 14°28' W 021°56'914.0
2015-May-18 15:32N 14°36' W 021°52'23013.6
2015-May-17 22:33N 18°04' W 020°09'1913.5
2015-May-17 21:08N 18°22' W 020°01'1213.6
2015-May-17 20:17N 18°32' W 019°56'1213.6
2015-May-17 19:26N 18°43' W 019°50'1214.0
2015-May-17 18:34N 18°54' W 019°45'1414.3
2015-May-17 17:33N 19°07' W 019°38'1414.3
2015-May-17 16:33N 19°20' W 019°32'1714.2
2015-May-17 15:21N 19°35' W 019°24'1114.3
2015-May-17 14:34N 19°45' W 019°19'1414.1
2015-May-17 13:34N 19°58' W 019°13'1414.1
2015-May-17 12:33N 20°11' W 019°06'1414.0
2015-May-17 11:31N 20°24' W 018°60'1313.7
2015-May-17 10:33N 20°36' W 018°53'1414.1
2015-May-17 09:33N 20°49' W 018°47'1414.0
2015-May-17 08:33N 21°01' W 018°41'1513.6
2015-May-17 07:29N 21°14' W 018°34'1413.8
2015-May-17 06:27N 21°27' W 018°28'1314.1
2015-May-17 05:33N 21°39' W 018°22'1413.7
2015-May-17 04:34N 21°51' W 018°15'2114.2
2015-May-17 03:03N 22°10' W 018°06'4813.8
2015-May-16 23:33N 22°54' W 017°43'  

Dump ship's entire track history